sensor_id;sensor_type;location;lat;lon;timestamp;temperature;humidity
2477;DHT22;1249;51.270;6.756;2023-05-21T00:00:59;19.10;90.90
2477;DHT22;1249;51.270;6.756;2023-05-21T00:03:25;19.10;91.00
2477;DHT22;1249;51.270;6.756;2023-05-21T00:05:52;19.10;91.00
2477;DHT22;1249;51.270;6.756;2023-05-21T00:08:19;19.00;91.10
2477;DHT22;1249;51.270;6.756;2023-05-21T00:10:44;19.00;91.20
2477;DHT22;1249;51.270;6.756;2023-05-21T00:13:10;19.00;91.30
2477;DHT22;1249;51.270;6.756;2023-05-21T00:15:35;19.00;91.30
2477;DHT22;1249;51.270;6.756;2023-05-21T00:18:04;18.90;91.40
2477;DHT22;1249;51.270;6.756;2023-05-21T00:20:30;18.90;91.50
2477;DHT22;1249;51.270;6.756;2023-05-21T00:22:58;18.90;91.50
2477;DHT22;1249;51.270;6.756;2023-05-21T00:25:27;18.90;91.60
2477;DHT22;1249;51.270;6.756;2023-05-21T00:27:53;18.90;91.70
2477;DHT22;1249;51.270;6.756;2023-05-21T00:30:19;18.80;91.70
2477;DHT22;1249;51.270;6.756;2023-05-21T00:32:45;18.80;91.80
2477;DHT22;1249;51.270;6.756;2023-05-21T00:35:10;18.80;91.90
2477;DHT22;1249;51.270;6.756;2023-05-21T00:37:37;18.80;92.00
2477;DHT22;1249;51.270;6.756;2023-05-21T00:40:03;18.70;92.00
2477;DHT22;1249;51.270;6.756;2023-05-21T00:42:36;18.80;92.10
2477;DHT22;1249;51.270;6.756;2023-05-21T00:45:06;18.70;92.10
2477;DHT22;1249;51.270;6.756;2023-05-21T00:47:33;18.70;92.20
2477;DHT22;1249;51.270;6.756;2023-05-21T00:49:59;18.70;92.30
2477;DHT22;1249;51.270;6.756;2023-05-21T00:52:24;18.70;92.40
2477;DHT22;1249;51.270;6.756;2023-05-21T00:54:51;18.60;92.50
2477;DHT22;1249;51.270;6.756;2023-05-21T00:57:22;18.60;92.50
2477;DHT22;1249;51.270;6.756;2023-05-21T00:59:50;18.60;92.60
2477;DHT22;1249;51.270;6.756;2023-05-21T01:02:16;18.60;92.70
2477;DHT22;1249;51.270;6.756;2023-05-21T01:04:46;18.60;92.70
2477;DHT22;1249;51.270;6.756;2023-05-21T01:07:12;18.60;92.80
2477;DHT22;1249;51.270;6.756;2023-05-21T01:09:39;18.60;92.90
2477;DHT22;1249;51.270;6.756;2023-05-21T01:12:05;18.50;92.90
2477;DHT22;1249;51.270;6.756;2023-05-21T01:14:32;18.50;93.00
2477;DHT22;1249;51.270;6.756;2023-05-21T01:16:59;18.50;93.10
2477;DHT22;1249;51.270;6.756;2023-05-21T01:19:26;18.50;93.10
2477;DHT22;1249;51.270;6.756;2023-05-21T01:21:56;18.50;93.50
2477;DHT22;1249;51.270;6.756;2023-05-21T01:24:24;18.50;93.30
2477;DHT22;1249;51.270;6.756;2023-05-21T01:26:50;18.40;93.30
2477;DHT22;1249;51.270;6.756;2023-05-21T01:29:16;18.40;93.40
2477;DHT22;1249;51.270;6.756;2023-05-21T01:32:16;18.40;93.50
2477;DHT22;1249;51.270;6.756;2023-05-21T01:35:04;18.40;93.50
2477;DHT22;1249;51.270;6.756;2023-05-21T01:42:47;18.30;93.70
2477;DHT22;1249;51.270;6.756;2023-05-21T01:45:15;18.30;93.80
2477;DHT22;1249;51.270;6.756;2023-05-21T01:47:44;18.30;93.90
2477;DHT22;1249;51.270;6.756;2023-05-21T01:50:12;18.30;93.90
2477;DHT22;1249;51.270;6.756;2023-05-21T01:52:38;18.30;94.00
2477;DHT22;1249;51.270;6.756;2023-05-21T01:55:03;18.30;94.00
2477;DHT22;1249;51.270;6.756;2023-05-21T01:57:29;18.30;94.00
2477;DHT22;1249;51.270;6.756;2023-05-21T01:59:55;18.30;94.10
2477;DHT22;1249;51.270;6.756;2023-05-21T02:02:22;18.30;94.10
2477;DHT22;1249;51.270;6.756;2023-05-21T02:04:47;18.20;94.20
2477;DHT22;1249;51.270;6.756;2023-05-21T02:07:14;18.30;94.30
2477;DHT22;1249;51.270;6.756;2023-05-21T02:09:40;18.20;94.20
2477;DHT22;1249;51.270;6.756;2023-05-21T02:12:06;18.20;94.30
2477;DHT22;1249;51.270;6.756;2023-05-21T02:14:32;18.20;94.40
2477;DHT22;1249;51.270;6.756;2023-05-21T02:16:59;18.20;94.40
2477;DHT22;1249;51.270;6.756;2023-05-21T02:19:25;18.20;94.50
2477;DHT22;1249;51.270;6.756;2023-05-21T02:21:51;18.20;94.60
2477;DHT22;1249;51.270;6.756;2023-05-21T02:24:16;18.10;94.60
2477;DHT22;1249;51.270;6.756;2023-05-21T02:26:42;18.10;94.70
2477;DHT22;1249;51.270;6.756;2023-05-21T02:29:08;18.10;94.70
2477;DHT22;1249;51.270;6.756;2023-05-21T02:31:33;18.10;94.80
2477;DHT22;1249;51.270;6.756;2023-05-21T02:33:59;18.10;94.90
2477;DHT22;1249;51.270;6.756;2023-05-21T02:36:24;18.10;94.90
2477;DHT22;1249;51.270;6.756;2023-05-21T02:38:53;18.10;94.90
2477;DHT22;1249;51.270;6.756;2023-05-21T02:41:19;18.10;95.00
2477;DHT22;1249;51.270;6.756;2023-05-21T02:43:45;18.10;95.20
2477;DHT22;1249;51.270;6.756;2023-05-21T02:46:10;18.00;95.00
2477;DHT22;1249;51.270;6.756;2023-05-21T02:48:36;18.00;95.20
2477;DHT22;1249;51.270;6.756;2023-05-21T02:51:02;18.00;95.40
2477;DHT22;1249;51.270;6.756;2023-05-21T02:53:27;17.90;95.40
2477;DHT22;1249;51.270;6.756;2023-05-21T02:55:53;17.90;95.50
2477;DHT22;1249;51.270;6.756;2023-05-21T02:58:18;18.00;95.60
2477;DHT22;1249;51.270;6.756;2023-05-21T03:00:45;18.00;95.70
2477;DHT22;1249;51.270;6.756;2023-05-21T03:03:11;17.90;95.70
2477;DHT22;1249;51.270;6.756;2023-05-21T03:05:36;17.90;95.70
2477;DHT22;1249;51.270;6.756;2023-05-21T03:08:05;18.00;95.70
2477;DHT22;1249;51.270;6.756;2023-05-21T03:10:31;17.90;95.80
2477;DHT22;1249;51.270;6.756;2023-05-21T03:12:56;17.90;95.90
2477;DHT22;1249;51.270;6.756;2023-05-21T03:15:22;17.90;96.00
2477;DHT22;1249;51.270;6.756;2023-05-21T03:17:49;17.80;96.00
2477;DHT22;1249;51.270;6.756;2023-05-21T03:20:14;17.80;96.10
2477;DHT22;1249;51.270;6.756;2023-05-21T03:22:43;17.80;96.20
2477;DHT22;1249;51.270;6.756;2023-05-21T03:25:09;17.80;96.20
2477;DHT22;1249;51.270;6.756;2023-05-21T03:27:36;17.80;96.30
2477;DHT22;1249;51.270;6.756;2023-05-21T03:30:02;17.80;96.40
2477;DHT22;1249;51.270;6.756;2023-05-21T03:32:28;17.80;96.40
2477;DHT22;1249;51.270;6.756;2023-05-21T03:34:53;17.80;96.40
2477;DHT22;1249;51.270;6.756;2023-05-21T03:37:19;17.80;96.40
2477;DHT22;1249;51.270;6.756;2023-05-21T03:39:44;17.80;96.60
2477;DHT22;1249;51.270;6.756;2023-05-21T03:42:10;17.80;96.60
2477;DHT22;1249;51.270;6.756;2023-05-21T03:44:38;17.70;96.50
2477;DHT22;1249;51.270;6.756;2023-05-21T03:47:04;17.80;96.60
2477;DHT22;1249;51.270;6.756;2023-05-21T03:49:29;17.70;96.60
2477;DHT22;1249;51.270;6.756;2023-05-21T03:51:55;17.70;96.70
2477;DHT22;1249;51.270;6.756;2023-05-21T03:54:20;17.80;96.70
2477;DHT22;1249;51.270;6.756;2023-05-21T03:56:46;17.70;96.70
2477;DHT22;1249;51.270;6.756;2023-05-21T03:59:11;17.70;96.70
2477;DHT22;1249;51.270;6.756;2023-05-21T04:01:37;17.70;96.80
2477;DHT22;1249;51.270;6.756;2023-05-21T04:04:03;17.70;96.90
2477;DHT22;1249;51.270;6.756;2023-05-21T04:06:29;17.70;96.90
2477;DHT22;1249;51.270;6.756;2023-05-21T04:08:54;17.80;96.90
2477;DHT22;1249;51.270;6.756;2023-05-21T04:11:20;17.80;96.90
2477;DHT22;1249;51.270;6.756;2023-05-21T04:13:45;17.80;97.00
2477;DHT22;1249;51.270;6.756;2023-05-21T04:16:12;17.70;96.90
2477;DHT22;1249;51.270;6.756;2023-05-21T04:18:39;17.70;97.00
2477;DHT22;1249;51.270;6.756;2023-05-21T04:21:06;17.70;96.90
2477;DHT22;1249;51.270;6.756;2023-05-21T04:23:32;17.80;97.10
2477;DHT22;1249;51.270;6.756;2023-05-21T04:25:57;17.80;97.00
2477;DHT22;1249;51.270;6.756;2023-05-21T04:28:23;17.80;97.00
2477;DHT22;1249;51.270;6.756;2023-05-21T04:30:49;17.80;97.10
2477;DHT22;1249;51.270;6.756;2023-05-21T04:33:14;17.80;97.10
2477;DHT22;1249;51.270;6.756;2023-05-21T04:35:49;17.80;97.10
2477;DHT22;1249;51.270;6.756;2023-05-21T04:38:15;17.80;97.10
2477;DHT22;1249;51.270;6.756;2023-05-21T04:40:49;17.80;97.10
2477;DHT22;1249;51.270;6.756;2023-05-21T04:43:18;17.80;97.10
2477;DHT22;1249;51.270;6.756;2023-05-21T04:45:53;17.90;97.10
2477;DHT22;1249;51.270;6.756;2023-05-21T04:48:22;17.90;97.00
2477;DHT22;1249;51.270;6.756;2023-05-21T04:50:49;17.90;97.00
2477;DHT22;1249;51.270;6.756;2023-05-21T04:53:15;17.90;97.00
2477;DHT22;1249;51.270;6.756;2023-05-21T04:55:41;17.90;97.00
2477;DHT22;1249;51.270;6.756;2023-05-21T04:58:06;17.90;97.00
2477;DHT22;1249;51.270;6.756;2023-05-21T05:00:33;17.90;96.90
2477;DHT22;1249;51.270;6.756;2023-05-21T05:02:58;17.90;96.90
2477;DHT22;1249;51.270;6.756;2023-05-21T05:05:24;18.00;96.90
2477;DHT22;1249;51.270;6.756;2023-05-21T05:07:50;18.00;97.00
2477;DHT22;1249;51.270;6.756;2023-05-21T05:10:16;18.00;96.90
2477;DHT22;1249;51.270;6.756;2023-05-21T05:12:41;18.00;96.90
2477;DHT22;1249;51.270;6.756;2023-05-21T05:15:07;18.10;96.80
2477;DHT22;1249;51.270;6.756;2023-05-21T05:17:33;18.10;96.80
2477;DHT22;1249;51.270;6.756;2023-05-21T05:19:59;18.10;96.80
2477;DHT22;1249;51.270;6.756;2023-05-21T05:22:25;18.10;96.80
2477;DHT22;1249;51.270;6.756;2023-05-21T05:24:51;18.10;96.70
2477;DHT22;1249;51.270;6.756;2023-05-21T05:27:16;18.10;96.70
2477;DHT22;1249;51.270;6.756;2023-05-21T05:29:43;18.20;96.70
2477;DHT22;1249;51.270;6.756;2023-05-21T05:32:09;18.20;96.70
2477;DHT22;1249;51.270;6.756;2023-05-21T05:34:35;18.20;96.60
2477;DHT22;1249;51.270;6.756;2023-05-21T05:37:01;18.30;96.70
2477;DHT22;1249;51.270;6.756;2023-05-21T05:39:27;18.30;96.60
2477;DHT22;1249;51.270;6.756;2023-05-21T05:41:52;18.30;99.30
2477;DHT22;1249;51.270;6.756;2023-05-21T05:44:18;18.50;99.90
2477;DHT22;1249;51.270;6.756;2023-05-21T05:46:44;18.70;99.90
2477;DHT22;1249;51.270;6.756;2023-05-21T05:49:09;18.90;99.90
2477;DHT22;1249;51.270;6.756;2023-05-21T05:51:35;19.00;99.90
2477;DHT22;1249;51.270;6.756;2023-05-21T05:54:01;19.10;99.90
2477;DHT22;1249;51.270;6.756;2023-05-21T05:56:27;19.20;99.90
2477;DHT22;1249;51.270;6.756;2023-05-21T05:58:52;19.30;99.90
2477;DHT22;1249;51.270;6.756;2023-05-21T06:01:18;19.40;99.90
2477;DHT22;1249;51.270;6.756;2023-05-21T06:03:44;19.40;99.90
2477;DHT22;1249;51.270;6.756;2023-05-21T06:06:09;19.50;99.90
2477;DHT22;1249;51.270;6.756;2023-05-21T06:08:35;19.50;99.90
2477;DHT22;1249;51.270;6.756;2023-05-21T06:11:01;19.60;99.40
2477;DHT22;1249;51.270;6.756;2023-05-21T06:13:27;19.60;98.80
2477;DHT22;1249;51.270;6.756;2023-05-21T06:15:52;19.70;98.40
2477;DHT22;1249;51.270;6.756;2023-05-21T06:18:18;19.70;97.90
2477;DHT22;1249;51.270;6.756;2023-05-21T06:20:43;19.80;97.50
2477;DHT22;1249;51.270;6.756;2023-05-21T06:23:09;19.80;97.00
2477;DHT22;1249;51.270;6.756;2023-05-21T06:25:34;19.90;96.60
2477;DHT22;1249;51.270;6.756;2023-05-21T06:28:00;20.00;96.20
2477;DHT22;1249;51.270;6.756;2023-05-21T06:30:26;20.10;95.80
2477;DHT22;1249;51.270;6.756;2023-05-21T06:32:51;20.20;95.20
2477;DHT22;1249;51.270;6.756;2023-05-21T06:35:17;20.30;94.90
2477;DHT22;1249;51.270;6.756;2023-05-21T06:37:42;20.30;94.50
2477;DHT22;1249;51.270;6.756;2023-05-21T06:40:08;20.30;94.20
2477;DHT22;1249;51.270;6.756;2023-05-21T06:42:34;20.40;94.30
2477;DHT22;1249;51.270;6.756;2023-05-21T06:45:00;20.50;94.40
2477;DHT22;1249;51.270;6.756;2023-05-21T06:47:25;20.70;95.10
2477;DHT22;1249;51.270;6.756;2023-05-21T06:49:51;20.70;94.50
2477;DHT22;1249;51.270;6.756;2023-05-21T06:52:17;20.80;94.30
2477;DHT22;1249;51.270;6.756;2023-05-21T06:54:42;21.00;93.70
2477;DHT22;1249;51.270;6.756;2023-05-21T06:57:08;21.30;93.20
2477;DHT22;1249;51.270;6.756;2023-05-21T06:59:33;21.50;92.40
2477;DHT22;1249;51.270;6.756;2023-05-21T07:01:59;21.80;91.80
2477;DHT22;1249;51.270;6.756;2023-05-21T07:04:24;22.00;91.30
2477;DHT22;1249;51.270;6.756;2023-05-21T07:06:50;22.10;90.60
2477;DHT22;1249;51.270;6.756;2023-05-21T07:09:16;22.10;90.20
2477;DHT22;1249;51.270;6.756;2023-05-21T07:11:42;22.10;90.00
2477;DHT22;1249;51.270;6.756;2023-05-21T07:14:08;22.00;90.00
2477;DHT22;1249;51.270;6.756;2023-05-21T07:16:34;21.80;90.10
2477;DHT22;1249;51.270;6.756;2023-05-21T07:18:59;21.80;90.30
2477;DHT22;1249;51.270;6.756;2023-05-21T07:21:25;21.80;90.30
2477;DHT22;1249;51.270;6.756;2023-05-21T07:23:50;22.00;90.40
2477;DHT22;1249;51.270;6.756;2023-05-21T07:26:16;22.00;90.00
2477;DHT22;1249;51.270;6.756;2023-05-21T07:28:42;22.30;89.70
2477;DHT22;1249;51.270;6.756;2023-05-21T07:31:07;22.50;89.20
2477;DHT22;1249;51.270;6.756;2023-05-21T07:33:33;22.70;88.80
2477;DHT22;1249;51.270;6.756;2023-05-21T07:35:58;22.80;88.60
2477;DHT22;1249;51.270;6.756;2023-05-21T07:38:24;22.90;88.30
2477;DHT22;1249;51.270;6.756;2023-05-21T07:40:50;23.00;88.40
2477;DHT22;1249;51.270;6.756;2023-05-21T07:43:15;23.10;88.40
2477;DHT22;1249;51.270;6.756;2023-05-21T07:45:41;23.20;87.80
2477;DHT22;1249;51.270;6.756;2023-05-21T07:48:07;23.30;87.30
2477;DHT22;1249;51.270;6.756;2023-05-21T07:50:32;23.40;86.60
2477;DHT22;1249;51.270;6.756;2023-05-21T07:52:58;23.50;85.90
2477;DHT22;1249;51.270;6.756;2023-05-21T07:55:23;23.60;85.90
2477;DHT22;1249;51.270;6.756;2023-05-21T07:57:49;23.60;85.80
2477;DHT22;1249;51.270;6.756;2023-05-21T08:00:17;23.80;85.70
2477;DHT22;1249;51.270;6.756;2023-05-21T08:02:43;23.90;85.00
2477;DHT22;1249;51.270;6.756;2023-05-21T08:05:08;23.90;83.80
2477;DHT22;1249;51.270;6.756;2023-05-21T08:07:35;23.90;83.30
2477;DHT22;1249;51.270;6.756;2023-05-21T08:10:00;23.90;83.10
2477;DHT22;1249;51.270;6.756;2023-05-21T08:12:26;24.00;83.10
2477;DHT22;1249;51.270;6.756;2023-05-21T08:14:52;24.00;82.80
2477;DHT22;1249;51.270;6.756;2023-05-21T08:17:17;24.10;82.50
2477;DHT22;1249;51.270;6.756;2023-05-21T08:19:43;24.20;82.50
2477;DHT22;1249;51.270;6.756;2023-05-21T08:22:08;24.40;82.60
2477;DHT22;1249;51.270;6.756;2023-05-21T08:24:34;24.70;82.40
2477;DHT22;1249;51.270;6.756;2023-05-21T08:26:59;25.10;81.60
2477;DHT22;1249;51.270;6.756;2023-05-21T08:29:25;25.30;80.00
2477;DHT22;1249;51.270;6.756;2023-05-21T08:31:51;25.60;79.80
2477;DHT22;1249;51.270;6.756;2023-05-21T08:34:16;26.10;79.10
2477;DHT22;1249;51.270;6.756;2023-05-21T08:36:43;26.40;77.40
2477;DHT22;1249;51.270;6.756;2023-05-21T08:39:10;26.50;76.00
2477;DHT22;1249;51.270;6.756;2023-05-21T08:41:37;26.60;75.40
2477;DHT22;1249;51.270;6.756;2023-05-21T08:44:08;26.80;75.40
2477;DHT22;1249;51.270;6.756;2023-05-21T08:46:36;27.00;74.30
2477;DHT22;1249;51.270;6.756;2023-05-21T08:49:04;27.00;73.60
2477;DHT22;1249;51.270;6.756;2023-05-21T08:51:30;27.10;73.60
2477;DHT22;1249;51.270;6.756;2023-05-21T08:53:56;27.30;72.90
2477;DHT22;1249;51.270;6.756;2023-05-21T08:56:24;27.50;72.20
2477;DHT22;1249;51.270;6.756;2023-05-21T08:58:50;27.80;71.60
2477;DHT22;1249;51.270;6.756;2023-05-21T09:01:16;28.00;70.70
2477;DHT22;1249;51.270;6.756;2023-05-21T09:03:43;28.20;70.20
2477;DHT22;1249;51.270;6.756;2023-05-21T09:06:11;28.40;69.70
2477;DHT22;1249;51.270;6.756;2023-05-21T09:08:44;28.60;69.10
2477;DHT22;1249;51.270;6.756;2023-05-21T09:11:13;28.70;68.50
2477;DHT22;1249;51.270;6.756;2023-05-21T09:13:39;28.80;68.00
2477;DHT22;1249;51.270;6.756;2023-05-21T09:16:06;28.80;67.90
2477;DHT22;1249;51.270;6.756;2023-05-21T09:18:33;28.90;67.80
2477;DHT22;1249;51.270;6.756;2023-05-21T09:21:22;29.10;67.80
2477;DHT22;1249;51.270;6.756;2023-05-21T09:23:53;29.30;67.10
2477;DHT22;1249;51.270;6.756;2023-05-21T09:26:20;29.50;66.40
2477;DHT22;1249;51.270;6.756;2023-05-21T09:28:46;29.70;65.50
2477;DHT22;1249;51.270;6.756;2023-05-21T09:31:11;29.80;65.30
2477;DHT22;1249;51.270;6.756;2023-05-21T09:33:47;30.00;64.70
2477;DHT22;1249;51.270;6.756;2023-05-21T09:36:12;30.20;64.50
2477;DHT22;1249;51.270;6.756;2023-05-21T09:38:38;30.50;64.10
2477;DHT22;1249;51.270;6.756;2023-05-21T09:41:04;30.60;63.30
2477;DHT22;1249;51.270;6.756;2023-05-21T09:43:31;30.80;62.70
2477;DHT22;1249;51.270;6.756;2023-05-21T09:45:56;30.90;62.40
2477;DHT22;1249;51.270;6.756;2023-05-21T09:48:36;30.80;61.90
2477;DHT22;1249;51.270;6.756;2023-05-21T09:51:09;30.60;61.60
2477;DHT22;1249;51.270;6.756;2023-05-21T09:53:41;30.50;61.60
2477;DHT22;1249;51.270;6.756;2023-05-21T09:56:07;30.40;61.90
2477;DHT22;1249;51.270;6.756;2023-05-21T09:58:33;30.30;62.30
2477;DHT22;1249;51.270;6.756;2023-05-21T10:00:59;30.30;62.50
2477;DHT22;1249;51.270;6.756;2023-05-21T10:03:26;30.40;62.60
2477;DHT22;1249;51.270;6.756;2023-05-21T10:05:52;30.60;62.40
2477;DHT22;1249;51.270;6.756;2023-05-21T10:08:21;30.90;61.90
2477;DHT22;1249;51.270;6.756;2023-05-21T10:10:49;31.10;61.10
2477;DHT22;1249;51.270;6.756;2023-05-21T10:13:17;31.30;61.50
2477;DHT22;1249;51.270;6.756;2023-05-21T10:15:45;31.40;60.00
2477;DHT22;1249;51.270;6.756;2023-05-21T10:18:12;31.40;59.80
2477;DHT22;1249;51.270;6.756;2023-05-21T10:20:38;31.50;59.70
2477;DHT22;1249;51.270;6.756;2023-05-21T10:23:04;31.50;59.40
2477;DHT22;1249;51.270;6.756;2023-05-21T10:25:30;31.50;59.20
2477;DHT22;1249;51.270;6.756;2023-05-21T10:27:56;31.50;59.30
2477;DHT22;1249;51.270;6.756;2023-05-21T10:30:23;31.70;59.60
2477;DHT22;1249;51.270;6.756;2023-05-21T10:32:49;32.00;59.60
2477;DHT22;1249;51.270;6.756;2023-05-21T10:35:15;32.30;59.00
2477;DHT22;1249;51.270;6.756;2023-05-21T10:37:43;32.50;58.40
2477;DHT22;1249;51.270;6.756;2023-05-21T10:40:09;32.70;57.90
2477;DHT22;1249;51.270;6.756;2023-05-21T10:50:45;32.80;56.80
2477;DHT22;1249;51.270;6.756;2023-05-21T10:56:24;32.50;56.70
2477;DHT22;1249;51.270;6.756;2023-05-21T10:59:35;32.40;56.70
2477;DHT22;1249;51.270;6.756;2023-05-21T11:02:04;32.30;57.00
2477;DHT22;1249;51.270;6.756;2023-05-21T11:04:31;32.20;57.10
2477;DHT22;1249;51.270;6.756;2023-05-21T11:06:57;32.10;57.30
2477;DHT22;1249;51.270;6.756;2023-05-21T11:09:23;32.10;57.40
2477;DHT22;1249;51.270;6.756;2023-05-21T11:11:55;32.10;57.20
2477;DHT22;1249;51.270;6.756;2023-05-21T11:14:37;32.30;57.60
2477;DHT22;1249;51.270;6.756;2023-05-21T11:17:14;32.50;57.40
2477;DHT22;1249;51.270;6.756;2023-05-21T11:19:44;32.80;57.20
2477;DHT22;1249;51.270;6.756;2023-05-21T11:22:27;33.40;57.10
2477;DHT22;1249;51.270;6.756;2023-05-21T11:24:54;34.20;56.10
2477;DHT22;1249;51.270;6.756;2023-05-21T11:27:37;34.60;54.80
2477;DHT22;1249;51.270;6.756;2023-05-21T11:30:21;34.70;53.70
2477;DHT22;1249;51.270;6.756;2023-05-21T11:35:58;34.90;53.40
2477;DHT22;1249;51.270;6.756;2023-05-21T11:38:29;34.80;53.10
2477;DHT22;1249;51.270;6.756;2023-05-21T11:41:00;34.60;53.30
2477;DHT22;1249;51.270;6.756;2023-05-21T11:43:27;35.10;53.60
2477;DHT22;1249;51.270;6.756;2023-05-21T11:45:53;35.20;53.30
2477;DHT22;1249;51.270;6.756;2023-05-21T11:48:26;35.50;53.20
2477;DHT22;1249;51.270;6.756;2023-05-21T11:50:51;36.30;52.90
2477;DHT22;1249;51.270;6.756;2023-05-21T11:53:17;37.20;51.80
2477;DHT22;1249;51.270;6.756;2023-05-21T11:55:43;37.90;50.80
2477;DHT22;1249;51.270;6.756;2023-05-21T11:58:12;38.40;49.60
2477;DHT22;1249;51.270;6.756;2023-05-21T12:00:39;38.90;48.80
2477;DHT22;1249;51.270;6.756;2023-05-21T12:03:05;39.10;48.30
2477;DHT22;1249;51.270;6.756;2023-05-21T12:05:47;39.50;47.80
2477;DHT22;1249;51.270;6.756;2023-05-21T12:08:23;39.90;47.50
2477;DHT22;1249;51.270;6.756;2023-05-21T12:10:58;40.30;46.80
2477;DHT22;1249;51.270;6.756;2023-05-21T12:13:24;40.70;45.90
2477;DHT22;1249;51.270;6.756;2023-05-21T12:15:52;40.90;45.60
2477;DHT22;1249;51.270;6.756;2023-05-21T12:18:18;41.10;45.20
2477;DHT22;1249;51.270;6.756;2023-05-21T12:20:45;41.40;44.80
2477;DHT22;1249;51.270;6.756;2023-05-21T12:23:23;41.60;44.50
2477;DHT22;1249;51.270;6.756;2023-05-21T12:25:49;41.80;44.20
2477;DHT22;1249;51.270;6.756;2023-05-21T12:28:20;42.00;43.80
2477;DHT22;1249;51.270;6.756;2023-05-21T12:30:46;42.10;43.40
2477;DHT22;1249;51.270;6.756;2023-05-21T12:33:15;42.20;43.20
2477;DHT22;1249;51.270;6.756;2023-05-21T12:35:47;42.30;43.30
2477;DHT22;1249;51.270;6.756;2023-05-21T12:38:14;42.40;43.20
2477;DHT22;1249;51.270;6.756;2023-05-21T12:40:40;42.50;42.90
2477;DHT22;1249;51.270;6.756;2023-05-21T12:43:07;42.60;42.80
2477;DHT22;1249;51.270;6.756;2023-05-21T12:45:32;42.60;42.80
2477;DHT22;1249;51.270;6.756;2023-05-21T12:48:08;42.70;42.70
2477;DHT22;1249;51.270;6.756;2023-05-21T12:50:39;42.90;42.40
2477;DHT22;1249;51.270;6.756;2023-05-21T12:53:09;43.10;42.10
2477;DHT22;1249;51.270;6.756;2023-05-21T12:55:36;43.20;42.10
2477;DHT22;1249;51.270;6.756;2023-05-21T12:58:03;43.50;41.90
2477;DHT22;1249;51.270;6.756;2023-05-21T13:00:32;43.70;41.70
2477;DHT22;1249;51.270;6.756;2023-05-21T13:02:58;43.70;41.40
2477;DHT22;1249;51.270;6.756;2023-05-21T13:05:25;43.80;41.10
2477;DHT22;1249;51.270;6.756;2023-05-21T13:07:51;43.90;41.20
2477;DHT22;1249;51.270;6.756;2023-05-21T13:10:23;44.00;41.00
2477;DHT22;1249;51.270;6.756;2023-05-21T13:12:48;44.20;40.90
2477;DHT22;1249;51.270;6.756;2023-05-21T13:15:14;44.40;40.60
2477;DHT22;1249;51.270;6.756;2023-05-21T13:17:46;44.60;40.50
2477;DHT22;1249;51.270;6.756;2023-05-21T13:20:15;44.80;40.30
2477;DHT22;1249;51.270;6.756;2023-05-21T13:22:47;45.10;40.00
2477;DHT22;1249;51.270;6.756;2023-05-21T13:25:26;45.00;39.60
2477;DHT22;1249;51.270;6.756;2023-05-21T13:28:00;45.10;39.60
2477;DHT22;1249;51.270;6.756;2023-05-21T13:30:27;44.80;39.50
2477;DHT22;1249;51.270;6.756;2023-05-21T13:32:52;44.80;39.50
2477;DHT22;1249;51.270;6.756;2023-05-21T13:35:18;44.60;39.70
2477;DHT22;1249;51.270;6.756;2023-05-21T13:37:44;44.70;39.80
2477;DHT22;1249;51.270;6.756;2023-05-21T13:40:12;44.70;39.60
2477;DHT22;1249;51.270;6.756;2023-05-21T13:42:45;44.60;39.40
2477;DHT22;1249;51.270;6.756;2023-05-21T13:45:16;44.40;39.70
2477;DHT22;1249;51.270;6.756;2023-05-21T13:47:46;44.30;39.90
2477;DHT22;1249;51.270;6.756;2023-05-21T13:50:12;44.30;39.50
2477;DHT22;1249;51.270;6.756;2023-05-21T13:52:38;44.10;39.80
2477;DHT22;1249;51.270;6.756;2023-05-21T13:55:04;44.20;40.20
2477;DHT22;1249;51.270;6.756;2023-05-21T13:57:30;44.30;40.00
2477;DHT22;1249;51.270;6.756;2023-05-21T13:59:56;44.60;40.00
2477;DHT22;1249;51.270;6.756;2023-05-21T14:02:25;44.70;39.60
2477;DHT22;1249;51.270;6.756;2023-05-21T14:04:51;44.70;39.40
2477;DHT22;1249;51.270;6.756;2023-05-21T14:07:19;44.80;39.40
2477;DHT22;1249;51.270;6.756;2023-05-21T14:09:45;44.90;39.40
2477;DHT22;1249;51.270;6.756;2023-05-21T14:12:11;44.90;39.30
2477;DHT22;1249;51.270;6.756;2023-05-21T14:14:37;45.00;39.10
2477;DHT22;1249;51.270;6.756;2023-05-21T14:17:04;45.00;38.90
2477;DHT22;1249;51.270;6.756;2023-05-21T14:19:30;45.00;38.90
2477;DHT22;1249;51.270;6.756;2023-05-21T14:21:56;45.10;38.80
2477;DHT22;1249;51.270;6.756;2023-05-21T14:24:21;45.10;38.90
2477;DHT22;1249;51.270;6.756;2023-05-21T14:26:47;45.20;38.90
2477;DHT22;1249;51.270;6.756;2023-05-21T14:29:13;45.30;38.90
2477;DHT22;1249;51.270;6.756;2023-05-21T14:31:38;45.20;38.60
2477;DHT22;1249;51.270;6.756;2023-05-21T14:34:04;45.30;38.70
2477;DHT22;1249;51.270;6.756;2023-05-21T14:36:32;45.20;38.50
2477;DHT22;1249;51.270;6.756;2023-05-21T14:41:26;44.80;38.60
2477;DHT22;1249;51.270;6.756;2023-05-21T14:43:52;44.80;38.80
2477;DHT22;1249;51.270;6.756;2023-05-21T14:46:18;44.70;38.80
2477;DHT22;1249;51.270;6.756;2023-05-21T14:48:44;44.60;38.90
2477;DHT22;1249;51.270;6.756;2023-05-21T14:51:13;44.50;39.00
2477;DHT22;1249;51.270;6.756;2023-05-21T14:53:39;44.30;39.20
2477;DHT22;1249;51.270;6.756;2023-05-21T14:56:05;44.20;39.30
2477;DHT22;1249;51.270;6.756;2023-05-21T14:58:31;44.20;39.50
2477;DHT22;1249;51.270;6.756;2023-05-21T15:01:01;44.10;39.50
2477;DHT22;1249;51.270;6.756;2023-05-21T15:03:28;44.00;39.50
2477;DHT22;1249;51.270;6.756;2023-05-21T15:05:53;44.00;39.70
2477;DHT22;1249;51.270;6.756;2023-05-21T15:08:19;43.80;39.70
2477;DHT22;1249;51.270;6.756;2023-05-21T15:10:44;43.70;40.00
2477;DHT22;1249;51.270;6.756;2023-05-21T15:13:10;43.50;40.10
2477;DHT22;1249;51.270;6.756;2023-05-21T15:15:36;43.40;40.10
2477;DHT22;1249;51.270;6.756;2023-05-21T15:18:01;43.30;40.20
2477;DHT22;1249;51.270;6.756;2023-05-21T15:20:27;43.30;40.30
2477;DHT22;1249;51.270;6.756;2023-05-21T15:22:52;43.10;40.40
2477;DHT22;1249;51.270;6.756;2023-05-21T15:25:18;43.00;40.30
2477;DHT22;1249;51.270;6.756;2023-05-21T15:27:44;42.80;40.30
2477;DHT22;1249;51.270;6.756;2023-05-21T15:30:10;42.70;40.70
2477;DHT22;1249;51.270;6.756;2023-05-21T15:32:35;42.60;41.00
2477;DHT22;1249;51.270;6.756;2023-05-21T15:35:01;42.40;40.80
2477;DHT22;1249;51.270;6.756;2023-05-21T15:37:26;42.10;41.10
2477;DHT22;1249;51.270;6.756;2023-05-21T15:39:52;41.90;41.30
2477;DHT22;1249;51.270;6.756;2023-05-21T15:42:18;41.80;41.50
2477;DHT22;1249;51.270;6.756;2023-05-21T15:44:47;41.40;41.70
2477;DHT22;1249;51.270;6.756;2023-05-21T15:47:12;41.30;42.20
2477;DHT22;1249;51.270;6.756;2023-05-21T15:49:38;41.10;42.30
2477;DHT22;1249;51.270;6.756;2023-05-21T15:52:04;41.00;42.50
2477;DHT22;1249;51.270;6.756;2023-05-21T15:54:29;40.80;42.50
2477;DHT22;1249;51.270;6.756;2023-05-21T15:56:55;40.50;42.80
2477;DHT22;1249;51.270;6.756;2023-05-21T15:59:21;40.30;43.20
2477;DHT22;1249;51.270;6.756;2023-05-21T16:01:47;39.90;43.80
2477;DHT22;1249;51.270;6.756;2023-05-21T16:04:16;39.50;44.60
2477;DHT22;1249;51.270;6.756;2023-05-21T16:06:47;39.10;45.00
2477;DHT22;1249;51.270;6.756;2023-05-21T16:09:13;38.60;45.70
2477;DHT22;1249;51.270;6.756;2023-05-21T16:11:39;38.10;46.40
2477;DHT22;1249;51.270;6.756;2023-05-21T16:14:04;37.70;46.60
2477;DHT22;1249;51.270;6.756;2023-05-21T16:16:30;37.30;47.40
2477;DHT22;1249;51.270;6.756;2023-05-21T16:18:55;36.90;47.80
2477;DHT22;1249;51.270;6.756;2023-05-21T16:21:21;36.60;48.50
2477;DHT22;1249;51.270;6.756;2023-05-21T16:23:47;36.30;48.90